Time;durP1;ratioP1;P1;durP2;ratioP2;P2;SDS_P1;SDS_P2;PMS_P1;PMS_P2;Temp;Humidity;BMP_temperature;BMP_pressure;BME280_temperature;BME280_humidity;BME280_pressure;Samples;Min_cycle;Max_cycle;Signal;HPM_P1;HPM_P2
2022/11/05 00:09:43;;;;;;;;;;;8.00;99.90;;;;;;5040263;28;19920;-71
2022/11/05 00:17:39;;;;;;;;;;;8.10;99.90;;;;;;5039221;28;20012;-71
2022/11/05 00:20:05;;;;;;;;;;;8.10;99.90;;;;;;5038604;28;19999;-71
2022/11/05 00:25:15;;;;;;;;;;;8.20;99.90;;;;;;5040635;28;19924;-71
2022/11/05 00:27:42;;;;;;;;;;;8.20;99.90;;;;;;5040637;28;19917;-71
2022/11/05 00:30:08;;;;;;;;;;;8.20;99.90;;;;;;5023998;28;19923;-71
2022/11/05 00:32:33;;;;;;;;;;;8.10;99.90;;;;;;5037312;28;19936;-71
2022/11/05 00:34:59;;;;;;;;;;;8.10;99.90;;;;;;5039924;28;20019;-71
2022/11/05 00:37:27;;;;;;;;;;;8.00;99.90;;;;;;5039649;28;19921;-71
2022/11/05 00:39:53;;;;;;;;;;;8.00;99.90;;;;;;5039853;28;19982;-71
2022/11/05 00:45:04;;;;;;;;;;;8.00;99.90;;;;;;5037945;28;19924;-71
2022/11/05 00:50:15;;;;;;;;;;;7.90;99.90;;;;;;5038617;28;19928;-71
2022/11/05 00:52:56;;;;;;;;;;;7.90;99.90;;;;;;5038075;28;19924;-71
2022/11/05 00:55:33;;;;;;;;;;;7.90;99.90;;;;;;5022938;28;19927;-71
2022/11/05 00:57:59;;;;;;;;;;;7.90;99.90;;;;;;5038835;28;20382;-71
2022/11/05 01:00:26;;;;;;;;;;;7.90;99.90;;;;;;5038481;28;19920;-71
2022/11/05 01:02:52;;;;;;;;;;;7.80;99.90;;;;;;5020692;28;20511;-71
2022/11/05 01:05:17;;;;;;;;;;;7.80;99.90;;;;;;5039525;28;19928;-71
2022/11/05 01:07:43;;;;;;;;;;;7.80;99.90;;;;;;5043418;28;19931;-71
2022/11/05 01:10:08;;;;;;;;;;;7.70;99.90;;;;;;5041847;28;19989;-71
2022/11/05 01:12:34;;;;;;;;;;;7.80;99.90;;;;;;5044055;28;19923;-71
2022/11/05 01:15:00;;;;;;;;;;;7.70;99.90;;;;;;5040061;28;20487;-71
2022/11/05 01:17:25;;;;;;;;;;;7.80;99.90;;;;;;5043259;28;19975;-71
2022/11/05 01:19:51;;;;;;;;;;;7.70;99.90;;;;;;5042267;28;19916;-72
2022/11/05 01:22:16;;;;;;;;;;;7.70;99.90;;;;;;5043448;28;20043;-71
2022/11/05 01:24:42;;;;;;;;;;;7.70;99.90;;;;;;5042214;28;19929;-71
2022/11/05 01:27:07;;;;;;;;;;;7.60;99.90;;;;;;5045879;28;19924;-71
2022/11/05 01:29:33;;;;;;;;;;;7.70;99.90;;;;;;5044875;28;20405;-71
2022/11/05 01:31:58;;;;;;;;;;;7.60;99.90;;;;;;5044680;28;20933;-71
2022/11/05 01:34:24;;;;;;;;;;;7.60;99.90;;;;;;5025245;28;19967;-71
2022/11/05 01:36:49;;;;;;;;;;;7.60;99.90;;;;;;5042714;28;19960;-71
2022/11/05 01:39:15;;;;;;;;;;;7.60;99.90;;;;;;5042324;28;19924;-71
2022/11/05 01:41:40;;;;;;;;;;;7.50;99.90;;;;;;5042426;28;20305;-71
2022/11/05 01:44:26;;;;;;;;;;;7.60;99.90;;;;;;5042489;28;20653;-71
2022/11/05 01:46:51;;;;;;;;;;;7.60;99.90;;;;;;5042254;28;19921;-71
2022/11/05 01:49:25;;;;;;;;;;;7.50;99.90;;;;;;5041893;28;19916;-71
2022/11/05 01:51:50;;;;;;;;;;;7.50;99.90;;;;;;5038631;28;20004;-71
2022/11/05 01:54:19;;;;;;;;;;;7.50;99.90;;;;;;5041506;28;20570;-71
2022/11/05 01:56:51;;;;;;;;;;;7.50;99.90;;;;;;5040135;28;19924;-71
2022/11/05 01:59:28;;;;;;;;;;;7.50;99.90;;;;;;5040774;28;20366;-71
2022/11/05 02:01:54;;;;;;;;;;;7.50;99.90;;;;;;5041425;28;19959;-71
2022/11/05 02:04:40;;;;;;;;;;;7.50;99.90;;;;;;5045250;28;19967;-71
2022/11/05 02:07:06;;;;;;;;;;;7.40;99.90;;;;;;5056591;28;20602;-71
2022/11/05 02:09:34;;;;;;;;;;;7.40;99.90;;;;;;5049258;28;20015;-71
2022/11/05 02:12:00;;;;;;;;;;;7.50;99.90;;;;;;5042156;28;19924;-71
2022/11/05 02:14:25;;;;;;;;;;;7.40;99.90;;;;;;5040488;28;19917;-71
2022/11/05 02:17:00;;;;;;;;;;;7.40;99.90;;;;;;5043181;28;19970;-71
2022/11/05 02:19:26;;;;;;;;;;;7.40;99.90;;;;;;5041984;28;19917;-71
2022/11/05 02:22:12;;;;;;;;;;;7.30;99.90;;;;;;5043531;28;19928;-71
2022/11/05 02:24:48;;;;;;;;;;;7.40;99.90;;;;;;5040010;28;20049;-71
2022/11/05 02:27:27;;;;;;;;;;;7.30;99.90;;;;;;5041095;28;20031;-71
2022/11/05 02:30:08;;;;;;;;;;;7.30;99.90;;;;;;5041054;28;19917;-71
2022/11/05 02:32:43;;;;;;;;;;;7.30;99.90;;;;;;5042396;28;20016;-71
2022/11/05 02:35:11;;;;;;;;;;;7.30;99.90;;;;;;5040409;28;20378;-71
2022/11/05 02:37:43;;;;;;;;;;;7.30;99.90;;;;;;5043041;28;19916;-71
2022/11/05 02:40:38;;;;;;;;;;;7.30;99.90;;;;;;5023715;28;19921;-71
2022/11/05 02:43:14;;;;;;;;;;;7.30;99.90;;;;;;5031138;28;19916;-71
2022/11/05 02:45:45;;;;;;;;;;;7.30;99.90;;;;;;5042218;28;19928;-71
2022/11/05 02:48:17;;;;;;;;;;;7.20;99.90;;;;;;5043037;28;19916;-71
2022/11/05 02:51:12;;;;;;;;;;;7.20;99.90;;;;;;5021072;28;20290;-71
2022/11/05 02:53:44;;;;;;;;;;;7.20;99.90;;;;;;5027083;28;19963;-71
2022/11/05 02:56:18;;;;;;;;;;;7.20;99.90;;;;;;5040754;28;19971;-71
2022/11/05 02:58:44;;;;;;;;;;;7.20;99.90;;;;;;5042666;28;19925;-71
2022/11/05 03:01:13;;;;;;;;;;;7.20;99.90;;;;;;5039542;28;19924;-71
2022/11/05 03:03:40;;;;;;;;;;;7.20;99.90;;;;;;5040968;28;20149;-71
2022/11/05 03:06:12;;;;;;;;;;;7.20;99.90;;;;;;5041540;28;20011;-71
2022/11/05 03:08:44;;;;;;;;;;;7.20;99.90;;;;;;5038811;28;19990;-71
2022/11/05 03:11:12;;;;;;;;;;;7.20;99.90;;;;;;5040066;28;19924;-71
2022/11/05 03:13:46;;;;;;;;;;;7.20;99.90;;;;;;5040358;28;19978;-71
2022/11/05 03:16:17;;;;;;;;;;;7.20;99.90;;;;;;5042108;28;19927;-71
2022/11/05 03:19:09;;;;;;;;;;;7.20;99.90;;;;;;5059662;28;19947;-71
2022/11/05 03:21:45;;;;;;;;;;;7.20;99.90;;;;;;5022681;28;20012;-71
2022/11/05 03:24:13;;;;;;;;;;;7.20;99.90;;;;;;5038606;28;19920;-71
2022/11/05 03:26:42;;;;;;;;;;;7.20;99.90;;;;;;5039475;28;19964;-71
2022/11/05 03:29:10;;;;;;;;;;;7.20;99.90;;;;;;5040640;28;19928;-71
2022/11/05 03:31:36;;;;;;;;;;;7.20;99.90;;;;;;5040831;28;19916;-71
2022/11/05 03:34:03;;;;;;;;;;;7.20;99.90;;;;;;5025472;28;20058;-71
2022/11/05 03:36:40;;;;;;;;;;;7.10;99.90;;;;;;5041598;28;19924;-71
2022/11/05 03:39:07;;;;;;;;;;;7.10;99.90;;;;;;5037767;28;20443;-71
2022/11/05 03:41:33;;;;;;;;;;;7.10;99.90;;;;;;5038651;28;20468;-71
2022/11/05 03:44:01;;;;;;;;;;;7.20;99.90;;;;;;5041037;28;19917;-71
2022/11/05 03:46:29;;;;;;;;;;;7.00;99.90;;;;;;5039876;28;20003;-71
2022/11/05 03:48:55;;;;;;;;;;;7.10;99.90;;;;;;5042235;28;20003;-71
2022/11/05 03:51:39;;;;;;;;;;;7.10;99.90;;;;;;5041165;28;21115;-71
2022/11/05 03:54:05;;;;;;;;;;;7.10;99.90;;;;;;5039073;28;19924;-71
2022/11/05 03:56:40;;;;;;;;;;;7.10;99.90;;;;;;5024464;28;19927;-71
2022/11/05 03:59:07;;;;;;;;;;;7.10;99.90;;;;;;5040404;28;19917;-71
2022/11/05 04:01:34;;;;;;;;;;;7.00;99.90;;;;;;5039622;28;19955;-71
2022/11/05 04:04:00;;;;;;;;;;;7.10;99.90;;;;;;5040848;28;19921;-71
2022/11/05 04:14:38;;;;;;;;;;;7.10;99.90;;;;;;5037428;28;20647;-71
2022/11/05 04:17:10;;;;;;;;;;;7.10;99.90;;;;;;5040739;28;19924;-71
2022/11/05 04:25:06;;;;;;;;;;;7.10;99.90;;;;;;5039911;28;19928;-71
2022/11/05 04:27:32;;;;;;;;;;;7.00;99.90;;;;;;5038800;28;20017;-71
2022/11/05 04:32:41;;;;;;;;;;;7.00;99.90;;;;;;5040103;28;19917;-71
2022/11/05 04:35:07;;;;;;;;;;;7.00;99.90;;;;;;5040904;28;19917;-71
2022/11/05 04:37:32;;;;;;;;;;;7.00;99.90;;;;;;5038791;28;19971;-71
2022/11/05 04:39:58;;;;;;;;;;;7.00;99.90;;;;;;5036569;28;19921;-71
2022/11/05 04:42:23;;;;;;;;;;;7.00;99.90;;;;;;5039056;28;20400;-71
2022/11/05 04:44:49;;;;;;;;;;;7.00;99.90;;;;;;5039287;28;20282;-71
2022/11/05 04:47:14;;;;;;;;;;;7.00;99.90;;;;;;5040400;28;19974;-71
2022/11/05 04:49:40;;;;;;;;;;;7.00;99.90;;;;;;5040902;28;19917;-71
2022/11/05 04:52:05;;;;;;;;;;;7.10;99.90;;;;;;5038826;28;20047;-71
2022/11/05 04:54:31;;;;;;;;;;;7.10;99.90;;;;;;5036245;28;19917;-71
2022/11/05 04:56:56;;;;;;;;;;;7.10;99.90;;;;;;5037277;28;19925;-71
2022/11/05 04:59:22;;;;;;;;;;;7.10;99.90;;;;;;5023691;28;19920;-71
2022/11/05 05:01:51;;;;;;;;;;;7.10;99.90;;;;;;5022990;28;20481;-71
2022/11/05 05:04:17;;;;;;;;;;;7.10;99.90;;;;;;5040107;28;19978;-71
2022/11/05 05:06:42;;;;;;;;;;;7.00;99.90;;;;;;5041185;28;19921;-71
2022/11/05 05:09:08;;;;;;;;;;;7.00;99.90;;;;;;5039117;28;19920;-71
2022/11/05 05:11:33;;;;;;;;;;;7.00;99.90;;;;;;5040470;28;20409;-71
2022/11/05 05:13:59;;;;;;;;;;;7.00;99.90;;;;;;5038343;28;19962;-71
2022/11/05 05:16:25;;;;;;;;;;;6.90;99.90;;;;;;5041047;28;19925;-71
2022/11/05 05:18:51;;;;;;;;;;;6.90;99.90;;;;;;5039036;28;19943;-71
2022/11/05 05:24:01;;;;;;;;;;;6.90;99.90;;;;;;5038326;28;19917;-71
2022/11/05 05:26:26;;;;;;;;;;;6.90;99.90;;;;;;5041575;28;19994;-71
2022/11/05 05:28:52;;;;;;;;;;;6.90;99.90;;;;;;5038176;28;20445;-71
2022/11/05 05:31:18;;;;;;;;;;;6.90;99.90;;;;;;5040804;28;19978;-71
2022/11/05 05:33:44;;;;;;;;;;;6.90;99.90;;;;;;5039163;28;19947;-71
2022/11/05 05:36:09;;;;;;;;;;;6.90;99.90;;;;;;5041352;28;19924;-71
2022/11/05 05:38:35;;;;;;;;;;;6.90;99.90;;;;;;5035204;28;19916;-71
2022/11/05 05:41:00;;;;;;;;;;;6.80;99.90;;;;;;5041616;28;19935;-71
2022/11/05 05:43:32;;;;;;;;;;;6.80;99.90;;;;;;5039057;28;19993;-71
2022/11/05 05:46:04;;;;;;;;;;;6.90;99.90;;;;;;5039812;28;19967;-71
2022/11/05 05:48:30;;;;;;;;;;;6.80;99.90;;;;;;5040112;28;19924;-71
2022/11/05 05:51:00;;;;;;;;;;;6.90;99.90;;;;;;5038312;28;19916;-71
2022/11/05 05:53:26;;;;;;;;;;;6.90;99.90;;;;;;5041456;28;19971;-71
2022/11/05 05:55:52;;;;;;;;;;;6.90;99.90;;;;;;5042790;28;19924;-71
2022/11/05 05:58:17;;;;;;;;;;;6.90;99.90;;;;;;5042056;28;19916;-71
2022/11/05 06:00:43;;;;;;;;;;;6.80;99.90;;;;;;5042396;28;19917;-71
2022/11/05 06:03:08;;;;;;;;;;;6.90;99.90;;;;;;5043121;28;19916;-71
2022/11/05 06:05:34;;;;;;;;;;;6.90;99.90;;;;;;5043448;28;19927;-71
2022/11/05 06:07:59;;;;;;;;;;;6.90;99.90;;;;;;5039604;28;20020;-71
2022/11/05 06:10:25;;;;;;;;;;;6.90;99.90;;;;;;5043135;28;19920;-71
2022/11/05 06:12:50;;;;;;;;;;;6.90;99.90;;;;;;5043184;28;19970;-71
2022/11/05 06:15:16;;;;;;;;;;;6.90;99.90;;;;;;5044131;28;20390;-71
2022/11/05 06:17:42;;;;;;;;;;;6.80;99.90;;;;;;5041398;28;19978;-71
2022/11/05 06:20:08;;;;;;;;;;;6.90;99.90;;;;;;5045280;28;19925;-71
2022/11/05 06:22:33;;;;;;;;;;;6.90;99.90;;;;;;5038999;28;20340;-71
2022/11/05 06:24:59;;;;;;;;;;;6.90;99.90;;;;;;5042601;28;19956;-71
2022/11/05 06:27:24;;;;;;;;;;;6.90;99.90;;;;;;5042388;28;19921;-71
2022/11/05 06:29:50;;;;;;;;;;;6.90;99.90;;;;;;5039520;28;19920;-71
2022/11/05 06:32:15;;;;;;;;;;;6.90;99.90;;;;;;5042159;28;21108;-71
2022/11/05 06:34:41;;;;;;;;;;;6.90;99.90;;;;;;5040923;28;19924;-71
2022/11/05 06:37:06;;;;;;;;;;;6.90;99.90;;;;;;5025831;28;19992;-71
2022/11/05 06:39:32;;;;;;;;;;;6.90;99.90;;;;;;5042250;28;19921;-71
2022/11/05 06:41:57;;;;;;;;;;;6.90;99.90;;;;;;5043326;28;19921;-71
2022/11/05 06:44:23;;;;;;;;;;;6.90;99.90;;;;;;5041846;28;20516;-71
2022/11/05 06:46:48;;;;;;;;;;;6.90;99.90;;;;;;5043582;28;19990;-71
2022/11/05 06:49:14;;;;;;;;;;;6.90;99.90;;;;;;5041779;28;19923;-71
2022/11/05 06:51:39;;;;;;;;;;;6.80;99.90;;;;;;5041086;28;19917;-71
2022/11/05 06:54:05;;;;;;;;;;;6.80;99.90;;;;;;5040504;28;20386;-71
2022/11/05 06:56:30;;;;;;;;;;;6.80;99.90;;;;;;5040961;28;20007;-71
2022/11/05 06:58:55;;;;;;;;;;;6.80;99.90;;;;;;5041536;28;19924;-71
2022/11/05 07:01:22;;;;;;;;;;;6.80;99.90;;;;;;5041310;28;19959;-71
2022/11/05 07:03:48;;;;;;;;;;;6.80;99.90;;;;;;5028064;28;19974;-72
2022/11/05 07:06:14;;;;;;;;;;;6.80;99.90;;;;;;5027150;28;19921;-71
2022/11/05 07:08:39;;;;;;;;;;;6.80;99.90;;;;;;5040518;28;19923;-71
2022/11/05 07:11:05;;;;;;;;;;;6.80;99.90;;;;;;5041592;28;20656;-71
2022/11/05 07:13:30;;;;;;;;;;;6.90;99.90;;;;;;5040305;28;19947;-71
2022/11/05 07:15:56;;;;;;;;;;;6.80;99.90;;;;;;5041270;28;20059;-71
2022/11/05 07:18:22;;;;;;;;;;;6.80;99.90;;;;;;5044744;28;19960;-71
2022/11/05 07:20:48;;;;;;;;;;;6.80;99.90;;;;;;5024361;28;20011;-71
2022/11/05 07:23:14;;;;;;;;;;;6.90;99.90;;;;;;5040765;28;19924;-71
2022/11/05 07:25:40;;;;;;;;;;;6.90;99.90;;;;;;5038614;28;19921;-71
2022/11/05 07:28:07;;;;;;;;;;;6.80;99.90;;;;;;5020302;28;19924;-71
2022/11/05 07:30:34;;;;;;;;;;;6.80;99.90;;;;;;5039838;28;19948;-71
2022/11/05 07:32:59;;;;;;;;;;;6.90;99.90;;;;;;5059023;28;19916;-71
2022/11/05 07:35:25;;;;;;;;;;;6.90;99.90;;;;;;5035547;28;19932;-71
2022/11/05 07:37:52;;;;;;;;;;;6.90;99.90;;;;;;5040411;28;19917;-71
2022/11/05 07:40:18;;;;;;;;;;;6.90;99.90;;;;;;5040223;28;19916;-71
2022/11/05 07:42:51;;;;;;;;;;;6.90;99.90;;;;;;5040686;28;19955;-71
2022/11/05 07:45:17;;;;;;;;;;;7.00;99.90;;;;;;5034208;28;19929;-71
2022/11/05 07:47:46;;;;;;;;;;;7.00;99.90;;;;;;5041897;28;19973;-71
2022/11/05 07:50:12;;;;;;;;;;;7.00;99.90;;;;;;5040375;28;20567;-71
2022/11/05 07:52:38;;;;;;;;;;;7.00;99.90;;;;;;5040711;28;20401;-71
2022/11/05 07:55:04;;;;;;;;;;;7.00;99.90;;;;;;5039931;28;19917;-71
2022/11/05 07:57:29;;;;;;;;;;;7.10;99.90;;;;;;5020384;28;19917;-71
2022/11/05 07:59:55;;;;;;;;;;;7.10;99.90;;;;;;5022117;28;19924;-71
2022/11/05 08:02:21;;;;;;;;;;;7.10;99.90;;;;;;5024873;28;19989;-71
2022/11/05 08:04:46;;;;;;;;;;;7.20;99.90;;;;;;5039272;28;20018;-71
2022/11/05 08:07:12;;;;;;;;;;;7.20;99.90;;;;;;5041121;28;20041;-71
2022/11/05 08:09:37;;;;;;;;;;;7.20;99.90;;;;;;5035111;28;19982;-71
2022/11/05 08:12:03;;;;;;;;;;;7.20;99.90;;;;;;5041062;28;19974;-71
2022/11/05 08:14:28;;;;;;;;;;;7.30;99.90;;;;;;5039301;28;19931;-71
2022/11/05 08:16:55;;;;;;;;;;;7.30;99.90;;;;;;5058095;28;19972;-71
2022/11/05 08:19:21;;;;;;;;;;;7.30;99.90;;;;;;5039462;28;19924;-71
2022/11/05 08:21:46;;;;;;;;;;;7.40;99.90;;;;;;5035645;28;20002;-71
2022/11/05 08:24:12;;;;;;;;;;;7.40;99.90;;;;;;5019622;28;20553;-71
2022/11/05 08:26:37;;;;;;;;;;;7.50;99.90;;;;;;5037339;28;19951;-71
2022/11/05 08:29:03;;;;;;;;;;;7.50;99.90;;;;;;5034537;28;19920;-71
2022/11/05 08:31:29;;;;;;;;;;;7.60;99.90;;;;;;5038777;28;20374;-71
2022/11/05 08:33:55;;;;;;;;;;;7.60;99.90;;;;;;5051318;28;19916;-73
2022/11/05 08:36:21;;;;;;;;;;;7.60;99.90;;;;;;5039804;28;19962;-74
2022/11/05 08:38:46;;;;;;;;;;;7.70;99.90;;;;;;5036205;28;20041;-70
2022/11/05 08:41:12;;;;;;;;;;;7.80;99.90;;;;;;5033618;28;19936;-71
2022/11/05 08:43:37;;;;;;;;;;;7.80;99.90;;;;;;5039354;28;19916;-70
2022/11/05 08:46:03;;;;;;;;;;;7.80;99.90;;;;;;5049804;28;20378;-71
2022/11/05 08:48:28;;;;;;;;;;;7.90;99.90;;;;;;5030657;28;19923;-71
2022/11/05 08:50:54;;;;;;;;;;;7.90;99.90;;;;;;5048589;28;19916;-71
2022/11/05 08:53:20;;;;;;;;;;;8.00;99.90;;;;;;5044118;28;19917;-71
2022/11/05 08:55:48;;;;;;;;;;;8.00;99.90;;;;;;5047808;28;19917;-71
2022/11/05 08:58:15;;;;;;;;;;;8.10;99.90;;;;;;5048077;28;19917;-71
2022/11/05 09:00:42;;;;;;;;;;;8.10;99.90;;;;;;5046129;28;19921;-71
2022/11/05 09:03:08;;;;;;;;;;;8.10;99.90;;;;;;5048928;28;20120;-71
2022/11/05 09:05:36;;;;;;;;;;;8.20;99.90;;;;;;5049331;28;20007;-71
2022/11/05 09:08:05;;;;;;;;;;;8.20;99.90;;;;;;5046626;28;19923;-71
2022/11/05 09:10:31;;;;;;;;;;;8.30;99.90;;;;;;5046262;28;20400;-71
2022/11/05 09:12:57;;;;;;;;;;;8.40;99.90;;;;;;5049088;28;19916;-71
2022/11/05 09:15:23;;;;;;;;;;;8.40;99.90;;;;;;5048150;28;19947;-71
2022/11/05 09:17:49;;;;;;;;;;;8.40;99.90;;;;;;5030535;28;20294;-71
2022/11/05 09:20:14;;;;;;;;;;;8.50;99.90;;;;;;5047240;28;19917;-71
2022/11/05 09:22:40;;;;;;;;;;;8.50;99.90;;;;;;5046770;28;19916;-71
2022/11/05 09:25:05;;;;;;;;;;;8.60;99.90;;;;;;5045344;28;19924;-71
2022/11/05 09:27:31;;;;;;;;;;;8.60;99.90;;;;;;5050039;28;19931;-71
2022/11/05 09:29:57;;;;;;;;;;;8.70;99.90;;;;;;5051918;28;19924;-71
2022/11/05 09:32:22;;;;;;;;;;;8.70;99.90;;;;;;5052117;28;19920;-71
2022/11/05 09:34:48;;;;;;;;;;;8.70;99.90;;;;;;5051889;28;19994;-71
2022/11/05 09:37:14;;;;;;;;;;;8.80;99.90;;;;;;5050988;28;19916;-71
2022/11/05 09:39:40;;;;;;;;;;;8.80;99.90;;;;;;5032953;28;19923;-71
2022/11/05 09:42:11;;;;;;;;;;;8.80;99.90;;;;;;5051266;28;19924;-71
2022/11/05 09:44:37;;;;;;;;;;;8.90;99.90;;;;;;5051973;28;20370;-71
2022/11/05 09:47:06;;;;;;;;;;;9.00;99.90;;;;;;5051684;28;19975;-71
2022/11/05 09:49:38;;;;;;;;;;;8.90;99.90;;;;;;5034884;28;19924;-71
2022/11/05 09:52:05;;;;;;;;;;;9.00;99.90;;;;;;5050599;28;19920;-71
2022/11/05 09:54:30;;;;;;;;;;;9.10;99.90;;;;;;5050352;28;19970;-71
2022/11/05 09:56:56;;;;;;;;;;;9.10;99.90;;;;;;5034366;28;19916;-71
2022/11/05 09:59:27;;;;;;;;;;;9.20;99.90;;;;;;5035200;28;19916;-71
2022/11/05 10:01:58;;;;;;;;;;;9.20;99.90;;;;;;5051594;28;19921;-71
2022/11/05 10:04:26;;;;;;;;;;;9.30;99.90;;;;;;5049302;28;19939;-73
2022/11/05 10:06:58;;;;;;;;;;;9.40;99.90;;;;;;5045299;28;20713;-76
2022/11/05 10:09:25;;;;;;;;;;;9.40;99.90;;;;;;5045681;28;19917;-71
2022/11/05 10:12:11;;;;;;;;;;;9.40;99.90;;;;;;5047508;28;20382;-71
2022/11/05 10:14:38;;;;;;;;;;;9.50;99.90;;;;;;5042352;28;19921;-71
2022/11/05 10:17:09;;;;;;;;;;;9.50;99.90;;;;;;5055845;28;19920;-71
2022/11/05 10:19:46;;;;;;;;;;;9.60;99.90;;;;;;5062000;28;19940;-71
2022/11/05 10:22:16;;;;;;;;;;;9.60;99.90;;;;;;5043091;28;19943;-71
2022/11/05 10:24:43;;;;;;;;;;;9.70;99.90;;;;;;5044380;28;19921;-71
2022/11/05 10:27:14;;;;;;;;;;;9.70;99.90;;;;;;5044981;28;19925;-71
2022/11/05 10:29:41;;;;;;;;;;;9.70;99.90;;;;;;5041450;28;19970;-72
2022/11/05 10:32:07;;;;;;;;;;;9.80;99.90;;;;;;5045564;28;19926;-72
2022/11/05 10:34:35;;;;;;;;;;;9.80;99.90;;;;;;5043491;28;19945;-72
2022/11/05 10:37:00;;;;;;;;;;;9.90;99.90;;;;;;5048213;28;19921;-71
2022/11/05 10:39:26;;;;;;;;;;;9.90;99.90;;;;;;5044810;28;20294;-71
2022/11/05 10:42:07;;;;;;;;;;;9.90;99.90;;;;;;5045358;28;20010;-72
2022/11/05 10:44:32;;;;;;;;;;;10.00;99.90;;;;;;5050860;28;20359;-72
2022/11/05 10:47:13;;;;;;;;;;;9.90;99.90;;;;;;5049071;28;19931;-72
2022/11/05 10:49:46;;;;;;;;;;;10.00;99.90;;;;;;5044922;28;19978;-72
2022/11/05 10:52:22;;;;;;;;;;;10.00;99.90;;;;;;5045166;28;19917;-72
2022/11/05 10:54:49;;;;;;;;;;;10.00;99.90;;;;;;5048659;28;19928;-72
2022/11/05 10:57:32;;;;;;;;;;;10.10;99.90;;;;;;5045835;28;20880;-72
2022/11/05 11:00:16;;;;;;;;;;;10.20;99.90;;;;;;5048034;28;19916;-73
2022/11/05 11:03:08;;;;;;;;;;;10.20;99.90;;;;;;5042649;28;19924;-72
2022/11/05 11:05:35;;;;;;;;;;;10.30;99.90;;;;;;5028155;28;19921;-72
2022/11/05 11:08:22;;;;;;;;;;;10.30;99.90;;;;;;5047041;28;19925;-72
2022/11/05 11:10:47;;;;;;;;;;;10.30;99.90;;;;;;5030465;28;19928;-72
2022/11/05 11:13:17;;;;;;;;;;;10.30;99.90;;;;;;5038918;28;20429;-72
2022/11/05 11:15:43;;;;;;;;;;;10.30;99.90;;;;;;5045850;28;20357;-72
2022/11/05 11:18:24;;;;;;;;;;;10.40;99.90;;;;;;5069513;28;19916;-72
2022/11/05 11:20:49;;;;;;;;;;;10.40;99.90;;;;;;5045014;28;20286;-72
2022/11/05 11:23:16;;;;;;;;;;;10.40;99.90;;;;;;5043498;28;19927;-71
2022/11/05 11:25:52;;;;;;;;;;;10.40;99.90;;;;;;5045479;28;19967;-72
2022/11/05 11:28:19;;;;;;;;;;;10.40;99.90;;;;;;5020538;28;20765;-72
2022/11/05 11:30:47;;;;;;;;;;;10.40;99.90;;;;;;5059351;28;19974;-72
2022/11/05 11:33:12;;;;;;;;;;;10.50;99.90;;;;;;5043998;28;20592;-72
2022/11/05 11:35:38;;;;;;;;;;;10.50;99.90;;;;;;5031039;28;20007;-72
2022/11/05 11:38:04;;;;;;;;;;;10.60;99.90;;;;;;5045172;28;20007;-72
2022/11/05 11:40:32;;;;;;;;;;;10.60;99.90;;;;;;5057401;28;20373;-72
2022/11/05 11:42:59;;;;;;;;;;;10.60;99.90;;;;;;5048665;28;20345;-72
2022/11/05 11:45:43;;;;;;;;;;;10.70;99.90;;;;;;5042581;28;20039;-72
2022/11/05 11:48:13;;;;;;;;;;;10.70;99.90;;;;;;5044795;28;20306;-72
2022/11/05 11:50:38;;;;;;;;;;;10.70;99.90;;;;;;5036184;28;19917;-72
2022/11/05 11:53:19;;;;;;;;;;;10.80;99.90;;;;;;5036124;28;19925;-72
2022/11/05 11:55:54;;;;;;;;;;;10.80;99.90;;;;;;5039424;28;19921;-71
2022/11/05 11:58:24;;;;;;;;;;;10.80;99.90;;;;;;5036400;28;20424;-72
2022/11/05 12:00:58;;;;;;;;;;;10.90;99.90;;;;;;5042070;28;19917;-71
2022/11/05 12:03:23;;;;;;;;;;;10.90;99.90;;;;;;5037478;28;19925;-71
2022/11/05 12:06:00;;;;;;;;;;;10.90;99.90;;;;;;5040215;28;20316;-71
2022/11/05 12:08:26;;;;;;;;;;;10.80;99.90;;;;;;5038221;28;19924;-72
2022/11/05 12:11:40;;;;;;;3.22;0.98;;;10.80;99.90;;;;;;5117494;27;20124;-68
2022/11/05 12:14:32;;;;;;;1.60;0.70;;;10.80;99.90;;;;;;5065422;28;20109;-69
2022/11/05 12:17:23;;;;;;;1.63;0.60;;;10.80;99.90;;;;;;5057963;28;20423;-68
2022/11/05 12:20:13;;;;;;;1.65;0.60;;;10.80;99.90;;;;;;5067114;28;20053;-68
2022/11/05 12:22:57;;;;;;;2.85;1.25;;;10.80;99.90;;;;;;5063864;28;20044;-68
2022/11/05 12:25:44;;;;;;;1.35;0.80;;;10.80;99.90;;;;;;5070088;28;20091;-68
2022/11/05 12:28:35;;;;;;;7.55;0.88;;;10.80;99.90;;;;;;5071274;28;20035;-68
2022/11/05 12:31:28;;;;;;;1.05;0.68;;;10.80;99.90;;;;;;5048863;28;20051;-68
2022/11/05 12:34:09;;;;;;;1.48;0.88;;;10.90;99.90;;;;;;5074433;28;20040;-68
2022/11/05 12:36:50;;;;;;;3.20;0.60;;;10.80;99.90;;;;;;5071878;28;20040;-68
2022/11/05 12:39:31;;;;;;;2.38;0.68;;;10.80;99.90;;;;;;5065698;28;20037;-68
2022/11/05 12:42:25;;;;;;;1.63;0.70;;;10.90;99.90;;;;;;5057849;28;20036;-68
2022/11/05 12:45:08;;;;;;;0.98;0.50;;;10.90;99.90;;;;;;5063355;28;20067;-68
2022/11/05 12:47:53;;;;;;;0.80;0.50;;;10.90;99.90;;;;;;5062474;28;20021;-68
2022/11/05 12:50:41;;;;;;;2.40;0.98;;;10.90;99.90;;;;;;5061939;28;20136;-68
2022/11/05 12:53:31;;;;;;;1.27;0.52;;;10.90;99.90;;;;;;5061515;28;20094;-68
2022/11/05 12:56:05;;;;;;;1.60;0.60;;;11.00;99.90;;;;;;5060044;28;20305;-68
2022/11/05 12:58:37;;;;;;;4.40;0.80;;;10.90;99.90;;;;;;5065931;28;20077;-68
2022/11/05 13:01:10;;;;;;;2.90;0.45;;;10.90;99.90;;;;;;5064961;28;20519;-68
2022/11/05 13:03:35;;;;;;;2.40;1.10;;;11.00;99.90;;;;;;5077136;28;20051;-68
2022/11/05 13:06:06;;;;;;;2.08;0.63;;;11.00;99.90;;;;;;5059524;28;20044;-68
2022/11/05 13:08:57;;;;;;;2.00;0.88;;;11.00;99.90;;;;;;5050599;28;20060;-68
2022/11/05 13:11:35;;;;;;;2.92;0.85;;;11.00;99.90;;;;;;5046536;28;20424;-68
2022/11/05 13:14:31;;;;;;;1.13;0.65;;;11.00;99.90;;;;;;5065925;28;20036;-68
2022/11/05 13:17:03;;;;;;;;;;;11.00;99.90;;;;;;5060997;28;20577;-68
2022/11/05 13:20:02;;;;;;;1.98;1.13;;;11.00;99.90;;;;;;5065241;28;19916;-68
2022/11/05 13:22:32;;;;;;;2.03;1.23;;;11.00;99.90;;;;;;5049974;28;20831;-68
2022/11/05 13:25:15;;;;;;;4.18;1.30;;;11.00;99.90;;;;;;5044001;28;20643;-68
2022/11/05 13:27:57;;;;;;;1.83;0.68;;;11.00;99.90;;;;;;5053426;28;20049;-68
2022/11/05 13:30:50;;;;;;;3.15;1.25;;;11.00;99.90;;;;;;5044564;28;20037;-68
2022/11/05 13:33:35;;;;;;;1.63;0.88;;;11.00;99.90;;;;;;5049854;28;20507;-68
2022/11/05 13:39:20;;;;;;;2.08;1.23;;;11.10;99.90;;;;;;5047739;28;20049;-68
2022/11/05 13:42:05;;;;;;;1.92;0.90;;;11.10;99.90;;;;;;5024342;28;20045;-68
2022/11/05 13:45:21;;;;;;;3.53;1.00;;;11.10;99.90;;;;;;5045256;28;20402;-68
2022/11/05 13:48:09;;;;;;;2.38;1.10;;;11.10;99.90;;;;;;4977483;28;20037;-68
2022/11/05 13:51:12;;;;;;;1.90;0.77;;;11.10;99.90;;;;;;4976379;28;20046;-69
2022/11/05 13:54:09;;;;;;;1.58;0.90;;;11.20;99.90;;;;;;5044820;28;20055;-69
2022/11/05 13:57:03;;;;;;;1.73;0.88;;;11.10;99.90;;;;;;5044682;28;20339;-69
2022/11/05 13:59:29;;;;;;;6.10;2.47;;;11.20;99.90;;;;;;5048465;28;20040;-69
2022/11/05 14:01:58;;;;;;;7.32;1.55;;;11.10;99.90;;;;;;5046537;28;20158;-69
2022/11/05 14:04:37;;;;;;;3.10;1.15;;;11.20;99.90;;;;;;5048454;28;21794;-68
2022/11/05 14:07:08;;;;;;;3.60;1.95;;;11.20;99.90;;;;;;5044795;28;20068;-69
2022/11/05 14:09:36;;;;;;;3.35;2.05;;;11.20;99.90;;;;;;5045118;28;20540;-69
2022/11/05 14:12:03;;;;;;;11.95;5.13;;;11.20;99.90;;;;;;5047529;28;20533;-69
2022/11/05 14:14:42;;;;;;;47.00;20.13;;;11.10;99.90;;;;;;5049764;28;20036;-69
2022/11/05 14:17:08;;;;;;;20.10;9.90;;;11.10;99.90;;;;;;5046673;28;20094;-69
2022/11/05 14:20:05;;;;;;;7.15;2.85;;;11.10;99.90;;;;;;5030058;28;20040;-69
2022/11/05 14:22:31;;;;;;;13.90;6.75;;;11.10;99.90;;;;;;5037724;28;20048;-69
2022/11/05 14:24:58;;;;;;;5.57;2.08;;;11.00;99.90;;;;;;5036497;28;20064;-68
2022/11/05 14:27:36;;;;;;;5.28;2.33;;;11.10;99.90;;;;;;5032997;28;20047;-69
2022/11/05 14:30:36;;;;;;;5.97;3.25;;;11.00;99.90;;;;;;5046178;28;20045;-69
2022/11/05 14:33:11;;;;;;;5.88;4.63;;;11.00;99.90;;;;;;5027666;28;20104;-69
2022/11/05 14:35:37;;;;;;;4.90;2.38;;;11.00;99.90;;;;;;5031236;28;20050;-68
2022/11/05 14:38:05;;;;;;;2.67;1.83;;;11.00;99.90;;;;;;5048246;28;21736;-68
2022/11/05 14:40:35;;;;;;;3.47;1.77;;;11.00;99.90;;;;;;5053279;28;20037;-68
2022/11/05 14:43:04;;;;;;;4.78;2.33;;;11.00;99.90;;;;;;5055065;28;20048;-68
2022/11/05 14:45:34;;;;;;;5.82;1.83;;;11.00;99.90;;;;;;5059441;28;20135;-68
2022/11/05 14:48:03;;;;;;;2.35;1.42;;;11.00;99.90;;;;;;5038390;28;20562;-68
2022/11/05 14:50:40;;;;;;;3.85;1.67;;;10.90;99.90;;;;;;5041874;28;20098;-68
2022/11/05 14:53:24;;;;;;;3.10;2.10;;;10.90;99.90;;;;;;5047396;28;20044;-68
2022/11/05 14:56:08;;;;;;;7.05;2.13;;;10.90;99.90;;;;;;5028178;28;20047;-68
2022/11/05 14:58:36;;;;;;;3.42;1.70;;;10.90;99.90;;;;;;5043083;28;20028;-68
2022/11/05 15:01:05;;;;;;;6.68;1.80;;;10.90;99.90;;;;;;5048073;28;20059;-68
2022/11/05 15:03:44;;;;;;;2.55;1.17;;;10.80;99.90;;;;;;5047652;28;20048;-68
2022/11/05 15:06:19;;;;;;;2.05;1.38;;;10.80;99.90;;;;;;5040937;28;20037;-68
2022/11/05 15:08:47;;;;;;;2.55;1.33;;;10.80;99.90;;;;;;5050127;28;20048;-68
2022/11/05 15:11:21;;;;;;;4.50;1.63;;;10.80;99.90;;;;;;5042469;28;20063;-68